Time;durP1;ratioP1;P1;durP2;ratioP2;P2;SDS_P1;SDS_P2;PMS_P1;PMS_P2;Temp;Humidity;BMP_temperature;BMP_pressure;BME280_temperature;BME280_humidity;BME280_pressure;Samples;Min_cycle;Max_cycle;Signal;HPM_P1;HPM_P2
2022/10/21 00:00:56;;;;;;;16.50;10.60;;;7.30;99.90;;;;;;5114180;28;20279;-72
2022/10/21 00:03:23;;;;;;;15.93;9.48;;;7.30;99.90;;;;;;5096387;28;20182;-72
2022/10/21 00:05:49;;;;;;;15.07;9.95;;;7.20;99.90;;;;;;5114230;28;20187;-72
2022/10/21 00:08:15;;;;;;;19.77;11.53;;;7.20;99.90;;;;;;5114126;28;20678;-72
2022/10/21 00:10:41;;;;;;;17.60;10.25;;;7.20;99.90;;;;;;5114194;28;20187;-73
2022/10/21 00:13:07;;;;;;;19.10;10.87;;;7.10;99.90;;;;;;5095865;28;20279;-72
2022/10/21 00:15:33;;;;;;;16.45;10.05;;;7.10;99.90;;;;;;5114138;28;20533;-72
2022/10/21 00:17:58;;;;;;;19.83;10.33;;;7.00;99.90;;;;;;5114503;28;20214;-72
2022/10/21 00:20:24;;;;;;;20.03;11.53;;;7.00;99.90;;;;;;5095685;28;20199;-73
2022/10/21 00:22:50;;;;;;;17.33;10.77;;;7.00;99.90;;;;;;5114466;28;20944;-73
2022/10/21 00:25:15;;;;;;;14.73;10.17;;;7.00;99.90;;;;;;5113974;28;20691;-73
2022/10/21 00:27:41;;;;;;;18.20;10.27;;;7.00;99.90;;;;;;5114375;28;20263;-73
2022/10/21 00:30:08;;;;;;;16.30;10.40;;;7.00;99.90;;;;;;5114003;28;20485;-73
2022/10/21 00:32:34;;;;;;;16.02;10.02;;;7.00;99.90;;;;;;5114336;28;20176;-73
2022/10/21 00:34:59;;;;;;;15.70;10.80;;;6.90;99.90;;;;;;5113836;28;20236;-73
2022/10/21 00:37:27;;;;;;;21.33;10.53;;;6.90;99.90;;;;;;5095552;28;21006;-73
2022/10/21 00:39:53;;;;;;;15.45;8.88;;;6.90;99.90;;;;;;5113962;28;20199;-73
2022/10/21 00:42:20;;;;;;;12.70;9.40;;;6.90;99.90;;;;;;5096212;28;20179;-73
2022/10/21 00:45:04;;;;;;;15.10;9.80;;;6.90;99.90;;;;;;5099626;28;20650;-73
2022/10/21 00:47:51;;;;;;;17.20;10.88;;;6.90;99.90;;;;;;5118266;28;20179;-73
2022/10/21 00:50:41;;;;;;;15.52;9.75;;;6.90;99.90;;;;;;5099068;28;20261;-73
2022/10/21 00:53:11;;;;;;;21.90;13.27;;;6.90;99.90;;;;;;5117484;28;20244;-73
2022/10/21 00:55:39;;;;;;;21.70;14.52;;;6.80;99.90;;;;;;5117910;28;20199;-73
2022/10/21 00:58:06;;;;;;;22.90;14.60;;;6.80;99.90;;;;;;5118215;28;20211;-73
2022/10/21 01:00:32;;;;;;;15.70;11.52;;;6.80;99.90;;;;;;5099227;28;20616;-73
2022/10/21 01:02:58;;;;;;;20.37;12.93;;;6.80;99.90;;;;;;5099526;28;20176;-73
2022/10/21 01:05:24;;;;;;;20.02;12.77;;;6.70;99.90;;;;;;5117549;28;20432;-72
2022/10/21 01:07:50;;;;;;;27.45;12.40;;;6.70;99.90;;;;;;5118000;28;20187;-73
2022/10/21 01:10:16;;;;;;;21.67;12.30;;;6.70;99.90;;;;;;5099129;28;20664;-72
2022/10/21 01:13:06;;;;;;;19.20;11.93;;;6.60;99.90;;;;;;5099403;28;20963;-73
2022/10/21 01:15:51;;;;;;;19.38;12.35;;;6.60;99.90;;;;;;5099273;28;20699;-73
2022/10/21 01:19:12;;;;;;;13.82;10.38;;;6.60;99.90;;;;;;5117859;28;20601;-72
2022/10/21 01:21:49;;;;;;;19.05;11.18;;;6.50;99.90;;;;;;5054040;28;20676;-73
2022/10/21 01:24:26;;;;;;;17.85;10.60;;;6.50;99.90;;;;;;5098849;28;20271;-72
2022/10/21 01:27:11;;;;;;;19.17;10.10;;;6.50;99.90;;;;;;5117228;28;20226;-72
2022/10/21 01:29:49;;;;;;;16.20;10.05;;;6.40;99.90;;;;;;5098901;28;20280;-72
2022/10/21 01:32:23;;;;;;;19.13;9.73;;;6.40;99.90;;;;;;5117359;28;20180;-73
2022/10/21 01:35:02;;;;;;;14.27;9.10;;;6.40;99.90;;;;;;5117011;28;20204;-73
2022/10/21 01:37:50;;;;;;;15.38;9.10;;;6.40;99.90;;;;;;5117460;28;20207;-73
2022/10/21 01:40:43;;;;;;;18.10;9.13;;;6.40;99.90;;;;;;5098657;28;20225;-73
2022/10/21 01:43:18;;;;;;;15.70;10.10;;;6.30;99.90;;;;;;5117270;28;20187;-72
2022/10/21 01:46:04;;;;;;;17.83;10.68;;;6.30;99.90;;;;;;5116835;28;20192;-72
2022/10/21 01:48:38;;;;;;;18.27;10.13;;;6.20;99.90;;;;;;5116797;28;20278;-73
2022/10/21 01:51:06;;;;;;;17.40;10.48;;;6.20;99.90;;;;;;5116664;28;20216;-73
2022/10/21 01:53:41;;;;;;;14.90;9.20;;;6.20;99.90;;;;;;5116320;28;20179;-72
2022/10/21 01:56:08;;;;;;;17.80;10.55;;;6.20;99.90;;;;;;5116675;28;20191;-73
2022/10/21 01:58:36;;;;;;;15.43;10.80;;;6.20;99.90;;;;;;5098252;28;20664;-72
2022/10/21 02:01:05;;;;;;;16.23;9.98;;;6.10;99.90;;;;;;5116288;28;20317;-72
2022/10/21 02:03:37;;;;;;;16.17;9.68;;;6.10;99.90;;;;;;5116666;28;20641;-73
2022/10/21 02:06:03;;;;;;;15.55;10.00;;;6.10;99.90;;;;;;5116483;28;20534;-72
2022/10/21 02:08:29;;;;;;;16.23;9.32;;;6.10;99.90;;;;;;5116753;28;20164;-72
2022/10/21 02:11:01;;;;;;;15.73;9.30;;;6.00;99.90;;;;;;5097971;28;20686;-73
2022/10/21 02:13:34;;;;;;;14.15;9.55;;;6.00;99.90;;;;;;5116428;28;20166;-72
2022/10/21 02:16:05;;;;;;;20.30;10.15;;;6.00;99.90;;;;;;5116263;28;20209;-72
2022/10/21 02:18:30;;;;;;;15.63;10.00;;;5.90;99.90;;;;;;5097948;28;20203;-72
2022/10/21 02:21:02;;;;;;;17.00;9.50;;;5.90;99.90;;;;;;5116013;28;20195;-72
2022/10/21 02:23:38;;;;;;;15.00;9.75;;;5.90;99.90;;;;;;5097693;28;20196;-72
2022/10/21 02:26:04;;;;;;;17.52;9.15;;;5.90;99.90;;;;;;5116022;28;20707;-73
2022/10/21 02:28:31;;;;;;;14.38;9.13;;;5.80;99.90;;;;;;5116060;28;20259;-72
2022/10/21 02:31:10;;;;;;;15.43;9.10;;;5.80;99.90;;;;;;5097495;28;20298;-73
2022/10/21 02:34:00;;;;;;;15.15;9.98;;;5.80;99.90;;;;;;5116053;28;20685;-72
2022/10/21 02:36:50;;;;;;;15.70;9.70;;;5.70;99.90;;;;;;5115889;28;20196;-72
2022/10/21 02:39:29;;;;;;;11.73;8.60;;;5.70;99.90;;;;;;5097422;28;20247;-73
2022/10/21 02:41:57;;;;;;;16.02;9.77;;;5.60;99.90;;;;;;5115764;28;20262;-72
2022/10/21 02:44:23;;;;;;;13.48;9.00;;;5.60;99.90;;;;;;5115725;28;20259;-73
2022/10/21 02:46:50;;;;;;;16.42;10.75;;;5.60;99.90;;;;;;5097382;28;20182;-72
2022/10/21 02:49:16;;;;;;;15.38;11.55;;;5.50;99.90;;;;;;5115554;28;20217;-72
2022/10/21 02:51:42;;;;;;;19.90;9.60;;;5.50;99.90;;;;;;5115605;28;20168;-72
2022/10/21 02:54:07;;;;;;;12.60;9.63;;;5.50;99.90;;;;;;5097253;28;20172;-72
2022/10/21 02:56:34;;;;;;;17.43;10.17;;;5.50;99.90;;;;;;5115640;28;20617;-73
2022/10/21 02:59:00;;;;;;;14.38;9.52;;;5.50;99.90;;;;;;5097090;28;20227;-74
2022/10/21 03:01:25;;;;;;;12.73;9.10;;;5.50;99.90;;;;;;5097070;28;20207;-72
2022/10/21 03:03:51;;;;;;;18.37;9.57;;;5.40;99.90;;;;;;5115150;28;20400;-72
2022/10/21 03:06:17;;;;;;;15.43;9.60;;;5.40;99.90;;;;;;5114284;28;20418;-72
2022/10/21 03:08:43;;;;;;;14.13;10.27;;;5.40;99.90;;;;;;5115290;28;20183;-72
2022/10/21 03:11:08;;;;;;;17.00;9.50;;;5.40;99.90;;;;;;5115059;28;20263;-72
2022/10/21 03:13:34;;;;;;;16.80;9.30;;;5.30;99.90;;;;;;5116285;27;20415;-72
2022/10/21 03:16:00;;;;;;;12.80;8.67;;;5.30;99.90;;;;;;5135035;27;20590;-72
2022/10/21 03:18:25;;;;;;;16.27;9.30;;;5.20;99.90;;;;;;5116998;27;20305;-72
2022/10/21 03:20:51;;;;;;;16.80;8.97;;;5.20;99.90;;;;;;5151399;27;20191;-72
2022/10/21 03:23:18;;;;;;;16.10;9.67;;;5.20;99.90;;;;;;5135866;27;20183;-72
2022/10/21 03:25:45;;;;;;;14.27;9.15;;;5.20;99.90;;;;;;5116895;27;20730;-72
2022/10/21 03:28:11;;;;;;;13.30;8.93;;;5.10;99.90;;;;;;5117299;27;20183;-72
2022/10/21 03:30:36;;;;;;;13.38;9.20;;;5.10;99.90;;;;;;5135361;27;20367;-72
2022/10/21 03:33:02;;;;;;;18.17;10.23;;;5.10;99.90;;;;;;5135840;27;20179;-72
2022/10/21 03:35:28;;;;;;;18.47;10.60;;;5.00;99.90;;;;;;5116793;27;20186;-72
2022/10/21 03:37:53;;;;;;;16.47;10.70;;;5.00;99.90;;;;;;5135659;27;20447;-72
2022/10/21 03:40:19;;;;;;;16.30;10.63;;;5.10;99.90;;;;;;5151054;27;20592;-73
2022/10/21 03:42:45;;;;;;;16.17;10.75;;;5.00;99.90;;;;;;5134801;27;20185;-73
2022/10/21 03:45:11;;;;;;;18.00;10.43;;;5.00;99.90;;;;;;5134787;27;20212;-73
2022/10/21 03:47:37;;;;;;;19.60;10.30;;;5.10;99.90;;;;;;5134249;27;20183;-73
2022/10/21 03:50:03;;;;;;;15.00;9.07;;;5.10;99.90;;;;;;5133773;27;20193;-72
2022/10/21 03:52:28;;;;;;;20.55;11.40;;;5.20;99.90;;;;;;5134014;27;20203;-73
2022/10/21 03:54:54;;;;;;;16.80;10.23;;;5.20;99.90;;;;;;5133810;27;20214;-72
2022/10/21 03:57:20;;;;;;;19.83;12.07;;;5.30;99.90;;;;;;5115447;27;20236;-72
2022/10/21 03:59:45;;;;;;;20.10;11.00;;;5.30;99.90;;;;;;5115207;27;20215;-73
2022/10/21 04:02:11;;;;;;;16.13;10.80;;;5.30;99.90;;;;;;5135200;27;20178;-73
2022/10/21 04:04:36;;;;;;;15.63;10.37;;;5.30;99.90;;;;;;5116345;27;20301;-74
2022/10/21 04:07:02;;;;;;;15.67;8.50;;;5.30;99.90;;;;;;5135125;27;20515;-73
2022/10/21 04:09:27;;;;;;;16.63;9.10;;;5.40;99.90;;;;;;5134731;27;20186;-72
2022/10/21 04:11:53;;;;;;;16.40;9.40;;;5.40;99.90;;;;;;5134744;27;20597;-73
2022/10/21 04:14:18;;;;;;;14.70;9.00;;;5.40;99.90;;;;;;5134206;27;20174;-72
2022/10/21 04:16:44;;;;;;;15.20;9.50;;;5.40;99.90;;;;;;5134234;27;20261;-72
2022/10/21 04:19:16;;;;;;;16.27;9.97;;;5.30;99.90;;;;;;5116145;28;20213;-72
2022/10/21 04:21:42;;;;;;;15.55;10.70;;;5.30;99.90;;;;;;5116339;28;20913;-72
2022/10/21 04:24:08;;;;;;;20.70;11.70;;;5.30;99.90;;;;;;5115745;28;20219;-72
2022/10/21 04:26:33;;;;;;;16.83;10.70;;;5.30;99.90;;;;;;5134858;28;20179;-73
2022/10/21 04:28:59;;;;;;;14.73;9.73;;;5.30;99.90;;;;;;5134548;28;20171;-72
2022/10/21 04:31:24;;;;;;;17.20;9.00;;;5.30;99.90;;;;;;5134473;28;20311;-73
2022/10/21 04:33:50;;;;;;;15.20;9.40;;;5.20;99.90;;;;;;5134495;28;20654;-73
2022/10/21 04:36:16;;;;;;;13.50;8.63;;;5.20;99.90;;;;;;5132916;28;20659;-73
2022/10/21 04:38:42;;;;;;;15.25;8.82;;;5.20;99.90;;;;;;5114555;28;20512;-72
2022/10/21 04:41:08;;;;;;;18.80;9.07;;;5.30;99.90;;;;;;5133431;28;20186;-72
2022/10/21 04:43:35;;;;;;;17.27;9.47;;;5.30;99.90;;;;;;5133902;28;20402;-72
2022/10/21 04:46:00;;;;;;;10.52;7.78;;;5.30;99.90;;;;;;5115510;28;20219;-73
2022/10/21 04:48:26;;;;;;;14.67;8.50;;;5.30;99.90;;;;;;5115747;28;20222;-72
2022/10/21 04:50:53;;;;;;;16.20;10.03;;;5.30;99.90;;;;;;5134180;28;20199;-72
2022/10/21 04:53:19;;;;;;;13.77;8.77;;;5.20;99.90;;;;;;5134176;28;20266;-73
2022/10/21 04:55:45;;;;;;;13.98;8.32;;;5.20;99.90;;;;;;5134224;28;20198;-73
2022/10/21 04:58:10;;;;;;;11.63;8.23;;;5.20;99.90;;;;;;5115945;28;20214;-72
2022/10/21 05:00:36;;;;;;;11.50;8.23;;;5.20;99.90;;;;;;5115818;28;20188;-72
2022/10/21 05:03:02;;;;;;;17.87;9.53;;;5.10;99.90;;;;;;5134543;28;20907;-72
2022/10/21 05:05:28;;;;;;;16.48;10.20;;;5.10;99.90;;;;;;5116155;28;20242;-72
2022/10/21 05:07:54;;;;;;;14.50;8.30;;;5.10;99.90;;;;;;5116019;28;20207;-72
2022/10/21 05:10:21;;;;;;;13.37;8.70;;;5.10;99.90;;;;;;5114416;28;20251;-72
2022/10/21 05:12:46;;;;;;;17.08;9.95;;;5.00;99.90;;;;;;5134588;28;20730;-73
2022/10/21 05:15:13;;;;;;;16.70;8.50;;;5.00;99.90;;;;;;5115371;28;20210;-73
2022/10/21 05:17:39;;;;;;;13.60;8.52;;;5.00;99.90;;;;;;5133808;28;20266;-72
2022/10/21 05:20:05;;;;;;;16.90;9.00;;;4.90;99.90;;;;;;5133954;27;20270;-73
2022/10/21 05:22:31;;;;;;;16.35;8.85;;;4.80;99.90;;;;;;5115802;28;20810;-73
2022/10/21 05:24:57;;;;;;;20.40;10.30;;;4.80;99.90;;;;;;5115144;28;20239;-72
2022/10/21 05:27:22;;;;;;;18.70;11.00;;;4.80;99.90;;;;;;5133934;28;20171;-73
2022/10/21 05:29:48;;;;;;;21.83;11.03;;;4.80;99.90;;;;;;5136664;27;20195;-73
2022/10/21 05:32:14;;;;;;;19.17;12.07;;;4.80;99.90;;;;;;5118850;27;20232;-72
2022/10/21 05:34:39;;;;;;;19.10;12.20;;;4.80;99.90;;;;;;5118656;27;20208;-73
2022/10/21 05:37:05;;;;;;;19.47;11.10;;;4.80;99.90;;;;;;5118037;27;20255;-73
2022/10/21 05:39:30;;;;;;;18.90;12.37;;;4.70;99.90;;;;;;5118874;27;20222;-73
2022/10/21 05:41:56;;;;;;;23.03;14.67;;;4.70;99.90;;;;;;5137048;27;20243;-73
2022/10/21 05:44:22;;;;;;;40.00;21.97;;;4.70;99.90;;;;;;5136813;27;20170;-72
2022/10/21 05:46:47;;;;;;;32.03;18.37;;;4.70;99.90;;;;;;5117297;27;20179;-74
2022/10/21 05:49:13;;;;;;;32.73;17.27;;;4.80;99.90;;;;;;5115846;27;20419;-73
2022/10/21 05:51:38;;;;;;;26.47;15.37;;;4.80;99.90;;;;;;5134137;27;20256;-73
2022/10/21 05:54:04;;;;;;;29.20;19.10;;;4.80;99.90;;;;;;5133846;27;20179;-73
2022/10/21 05:56:31;;;;;;;29.73;18.83;;;4.90;99.90;;;;;;5132961;27;20203;-73
2022/10/21 05:58:56;;;;;;;27.00;17.85;;;4.90;99.90;;;;;;5133545;27;20203;-73
2022/10/21 06:01:22;;;;;;;26.37;17.17;;;5.00;99.90;;;;;;5114958;27;20563;-72
2022/10/21 06:03:48;;;;;;;25.50;13.57;;;5.00;99.90;;;;;;5134590;27;20179;-72
2022/10/21 06:06:14;;;;;;;26.20;13.43;;;5.10;99.90;;;;;;5117310;27;20203;-74
2022/10/21 06:08:39;;;;;;;23.33;13.90;;;5.20;99.90;;;;;;5134553;27;20462;-73
2022/10/21 06:11:11;;;;;;;24.70;15.70;;;5.30;99.90;;;;;;5132254;27;20191;-73
2022/10/21 06:13:38;;;;;;;22.73;14.38;;;5.40;99.90;;;;;;5132719;27;20171;-72
2022/10/21 06:16:05;;;;;;;27.23;14.73;;;5.50;99.90;;;;;;5112928;27;20191;-73
2022/10/21 06:18:30;;;;;;;27.55;15.00;;;5.70;99.90;;;;;;5113280;27;20214;-72
2022/10/21 06:20:56;;;;;;;24.73;13.73;;;5.80;99.90;;;;;;5131572;27;20187;-73
2022/10/21 06:23:22;;;;;;;24.00;13.97;;;5.90;99.90;;;;;;5114278;27;20857;-72
2022/10/21 06:26:06;;;;;;;23.63;13.50;;;5.90;99.90;;;;;;5134470;27;20234;-73
2022/10/21 06:28:34;;;;;;;28.63;15.70;;;6.10;99.90;;;;;;5116478;27;20175;-72
2022/10/21 06:31:00;;;;;;;24.98;15.27;;;6.20;99.90;;;;;;5133361;27;20191;-73
2022/10/21 06:33:26;;;;;;;21.65;13.68;;;6.20;99.90;;;;;;5133789;27;20167;-73
2022/10/21 06:35:52;;;;;;;25.90;14.60;;;6.30;99.90;;;;;;5115381;27;20715;-73
2022/10/21 06:38:18;;;;;;;22.90;14.97;;;6.50;99.90;;;;;;5111279;27;20466;-73
2022/10/21 06:40:44;;;;;;;24.73;13.87;;;6.60;99.90;;;;;;5130747;27;20210;-73
2022/10/21 06:43:10;;;;;;;22.50;15.05;;;6.70;99.90;;;;;;5116378;27;20183;-72
2022/10/21 06:45:36;;;;;;;23.80;14.07;;;6.80;99.90;;;;;;5117341;27;20219;-74
2022/10/21 06:48:02;;;;;;;20.70;12.65;;;6.90;99.90;;;;;;5131137;27;20269;-75
2022/10/21 06:50:27;;;;;;;23.20;15.80;;;7.10;99.90;;;;;;5129871;27;20665;-73
2022/10/21 06:52:53;;;;;;;23.10;14.50;;;7.30;99.90;;;;;;5132464;27;20211;-72
2022/10/21 06:55:19;;;;;;;22.23;13.33;;;7.50;99.90;;;;;;5098214;27;20341;-76
2022/10/21 06:57:44;;;;;;;22.00;14.00;;;7.60;99.90;;;;;;5099443;27;20191;-71
2022/10/21 07:00:11;;;;;;;20.53;13.20;;;7.80;99.90;;;;;;5099879;27;20471;-75
2022/10/21 07:02:37;;;;;;;32.20;13.95;;;7.90;99.90;;;;;;5100499;27;20184;-75
2022/10/21 07:05:04;;;;;;;22.50;12.83;;;8.00;99.90;;;;;;5099113;27;20226;-72
2022/10/21 07:07:30;;;;;;;26.25;13.63;;;8.20;99.90;;;;;;5133732;27;20427;-72
2022/10/21 07:09:56;;;;;;;20.63;12.50;;;8.30;99.90;;;;;;5132637;27;20285;-72
2022/10/21 07:12:23;;;;;;;23.20;12.95;;;8.40;99.90;;;;;;5131159;27;20183;-72
2022/10/21 07:14:49;;;;;;;19.73;13.32;;;8.60;99.90;;;;;;5129899;27;20233;-76
2022/10/21 07:17:16;;;;;;;14.77;11.17;;;8.80;99.90;;;;;;5111027;27;20274;-73
2022/10/21 07:19:41;;;;;;;23.90;13.35;;;8.90;99.90;;;;;;5131055;27;20259;-72
2022/10/21 07:22:07;;;;;;;20.40;13.27;;;9.00;99.90;;;;;;5129681;27;20195;-74
2022/10/21 07:24:33;;;;;;;20.63;14.60;;;9.10;99.90;;;;;;5111510;27;20275;-73
2022/10/21 07:26:58;;;;;;;22.93;13.47;;;9.20;99.90;;;;;;5131379;27;20187;-72
2022/10/21 07:29:24;;;;;;;22.30;11.70;;;9.40;99.90;;;;;;5131649;27;20503;-72
2022/10/21 07:31:49;;;;;;;193.00;119.53;;;9.50;99.90;;;;;;5133495;27;20194;-75
2022/10/21 07:34:16;;;;;;;17.20;11.80;;;9.80;99.90;;;;;;5133510;27;20229;-71
2022/10/21 07:36:46;;;;;;;33.80;26.70;;;10.10;99.90;;;;;;5133081;27;20175;-75
2022/10/21 07:39:15;;;;;;;14.27;11.40;;;10.40;99.90;;;;;;5114772;27;20202;-75
2022/10/21 07:41:49;;;;;;;15.32;10.75;;;10.70;99.90;;;;;;5135302;27;20243;-77
2022/10/21 07:44:16;;;;;;;14.93;9.73;;;11.10;99.90;;;;;;5133792;27;20174;-71
2022/10/21 07:46:43;;;;;;;18.40;11.07;;;11.50;99.90;;;;;;5114991;27;20671;-70
2022/10/21 07:49:10;;;;;;;15.48;10.93;;;11.80;99.90;;;;;;5133863;27;20163;-77
2022/10/21 07:51:36;;;;;;;13.77;10.13;;;12.30;99.90;;;;;;5134101;27;20191;-76
2022/10/21 07:54:02;;;;;;;15.60;11.47;;;12.90;99.90;;;;;;5116350;27;20179;-78
2022/10/21 07:56:37;;;;;;;15.67;10.40;;;13.60;99.90;;;;;;5132898;27;20450;-78
2022/10/21 07:59:03;;;;;;;22.63;10.13;;;14.40;99.90;;;;;;5132248;27;20458;-79
2022/10/21 08:01:30;;;;;;;13.90;10.07;;;15.00;99.90;;;;;;5116309;27;20451;-78
2022/10/21 08:03:57;;;;;;;16.90;11.23;;;15.60;99.90;;;;;;5129759;27;20419;-79
2022/10/21 08:06:25;;;;;;;50.10;16.77;;;15.90;99.90;;;;;;5110913;28;20459;-71
2022/10/21 08:08:51;;;;;;;14.20;10.17;;;16.20;99.90;;;;;;5125247;27;20872;-78
2022/10/21 08:11:25;;;;;;;11.37;9.63;;;16.70;99.90;;;;;;5131135;27;20455;-70
2022/10/21 08:13:51;;;;;;;13.73;10.70;;;17.10;99.90;;;;;;5132360;27;20410;-77
2022/10/21 08:16:17;;;;;;;12.50;10.33;;;17.50;99.90;;;;;;5112782;27;20562;-71
2022/10/21 08:18:43;;;;;;;11.80;10.40;;;17.80;99.90;;;;;;5125275;27;20542;-77
2022/10/21 08:21:09;;;;;;;15.37;11.13;;;17.80;99.90;;;;;;5101804;28;20203;-71
2022/10/21 08:23:34;;;;;;;17.13;11.97;;;17.90;99.90;;;;;;5131646;28;20205;-71
2022/10/21 08:26:00;;;;;;;19.00;10.20;;;18.00;99.90;;;;;;5113509;28;20199;-71
2022/10/21 08:28:28;;;;;;;15.70;10.40;;;18.00;99.90;;;;;;5130786;28;20171;-71
2022/10/21 08:31:05;;;;;;;15.67;10.30;;;18.00;99.80;;;;;;5129441;28;20430;-71
2022/10/21 08:33:31;;;;;;;19.20;12.07;;;18.00;99.70;;;;;;5111362;28;20407;-71
2022/10/21 08:35:56;;;;;;;17.70;12.40;;;18.00;99.70;;;;;;5093316;28;20547;-71
2022/10/21 08:38:22;;;;;;;12.30;10.10;;;17.90;99.40;;;;;;5110276;28;20236;-71
2022/10/21 08:40:48;;;;;;;14.20;11.40;;;17.80;99.70;;;;;;5128829;27;20203;-78
2022/10/21 08:43:25;;;;;;;15.50;10.93;;;17.80;99.60;;;;;;5128623;28;20645;-78
2022/10/21 08:45:59;;;;;;;14.83;9.73;;;17.80;99.60;;;;;;5130422;27;20458;-78
2022/10/21 08:48:30;;;;;;;13.80;10.53;;;17.90;99.70;;;;;;5111138;28;20423;-71
2022/10/21 08:50:57;;;;;;;13.50;10.77;;;18.10;99.40;;;;;;5111632;28;20443;-71
2022/10/21 08:53:36;;;;;;;16.47;11.63;;;18.10;98.70;;;;;;5124464;28;20426;-78
2022/10/21 08:56:05;;;;;;;18.07;11.20;;;18.00;98.80;;;;;;5127889;28;20792;-71
2022/10/21 08:58:31;;;;;;;12.60;10.10;;;17.80;99.20;;;;;;5113737;28;20459;-78
2022/10/21 09:01:18;;;;;;;13.57;9.97;;;17.60;99.40;;;;;;5132208;28;20426;-71
2022/10/21 09:04:02;;;;;;;14.00;10.90;;;17.40;99.80;;;;;;5133299;27;20399;-78
2022/10/21 09:06:54;;;;;;;16.80;11.70;;;17.10;99.90;;;;;;5136341;27;20442;-78
2022/10/21 09:09:31;;;;;;;13.40;10.80;;;16.70;99.90;;;;;;5117517;27;20411;-71
2022/10/21 09:12:23;;;;;;;14.60;10.80;;;16.20;99.90;;;;;;5134346;27;20696;-71
2022/10/21 09:15:10;;;;;;;14.80;11.17;;;16.00;99.90;;;;;;5126401;27;20542;-71
2022/10/21 09:18:01;;;;;;;16.50;11.47;;;15.90;99.90;;;;;;5135681;27;20535;-77
2022/10/21 09:20:33;;;;;;;15.30;11.33;;;16.00;99.90;;;;;;5117269;27;20470;-78
2022/10/21 09:23:12;;;;;;;14.00;9.80;;;16.10;99.90;;;;;;5130265;27;20427;-77
2022/10/21 09:25:49;;;;;;;13.40;10.20;;;16.10;99.90;;;;;;5134552;27;20494;-71
2022/10/21 09:28:15;;;;;;;14.80;11.73;;;16.10;99.90;;;;;;5112262;27;20801;-71
2022/10/21 09:30:43;;;;;;;14.33;10.97;;;16.00;99.90;;;;;;5097528;27;20473;-73
2022/10/21 09:33:27;;;;;;;14.60;10.93;;;16.00;99.90;;;;;;5115519;27;20423;-78
2022/10/21 09:36:11;;;;;;;12.70;10.10;;;16.00;99.90;;;;;;5112177;27;21993;-78
2022/10/21 09:38:59;;;;;;;13.33;10.60;;;16.00;99.90;;;;;;5105862;27;21084;-79
2022/10/21 09:41:31;;;;;;;13.23;9.60;;;16.00;99.90;;;;;;5103987;27;20469;-71
2022/10/21 09:43:57;;;;;;;12.70;10.23;;;16.00;99.90;;;;;;5109634;27;20665;-71
2022/10/21 09:46:23;;;;;;;12.20;9.70;;;16.00;99.90;;;;;;5127601;27;20945;-79
2022/10/21 09:48:54;;;;;;;10.80;9.67;;;16.00;99.90;;;;;;5103342;27;20187;-71
2022/10/21 09:51:28;;;;;;;12.43;9.37;;;16.00;99.90;;;;;;5124339;27;20279;-72
2022/10/21 09:53:58;;;;;;;10.33;9.10;;;15.90;99.90;;;;;;5109561;27;20461;-71
2022/10/21 09:56:48;;;;;;;12.00;9.40;;;15.90;99.90;;;;;;5126898;27;20455;-78
2022/10/21 09:59:18;;;;;;;14.07;9.33;;;16.00;99.90;;;;;;5065217;27;21055;-71
2022/10/21 10:01:44;;;;;;;13.30;9.60;;;16.00;99.90;;;;;;5109997;27;20430;-71
2022/10/21 10:04:22;;;;;;;13.47;10.10;;;16.00;99.90;;;;;;5110045;27;20440;-77
2022/10/21 10:06:49;;;;;;;11.50;8.53;;;16.10;99.90;;;;;;5109964;27;20505;-71
2022/10/21 10:09:30;;;;;;;11.30;8.60;;;16.20;99.90;;;;;;5111460;27;20571;-71
2022/10/21 10:12:15;;;;;;;12.03;8.70;;;16.20;99.90;;;;;;5124786;27;20424;-78
2022/10/21 10:14:42;;;;;;;10.80;8.07;;;16.30;99.90;;;;;;5130534;27;20435;-71
2022/10/21 10:17:28;;;;;;;12.50;9.80;;;16.30;99.90;;;;;;5113198;27;20423;-77
2022/10/21 10:20:02;;;;;;;10.03;7.90;;;16.30;99.90;;;;;;5130277;27;20473;-71
2022/10/21 10:22:29;;;;;;;10.93;7.27;;;16.40;99.90;;;;;;5109985;27;20825;-77
2022/10/21 10:25:07;;;;;;;10.83;8.63;;;16.40;99.90;;;;;;5111663;27;20994;-77
2022/10/21 10:27:32;;;;;;;10.33;7.20;;;16.40;99.90;;;;;;5104471;27;20440;-77
2022/10/21 10:30:00;;;;;;;14.40;7.97;;;16.50;99.90;;;;;;5118452;27;20481;-71
2022/10/21 10:32:30;;;;;;;10.77;7.73;;;16.50;99.90;;;;;;5104943;27;20180;-72
2022/10/21 10:34:59;;;;;;;9.67;7.60;;;16.50;99.90;;;;;;5113853;27;20477;-77
2022/10/21 10:37:32;;;;;;;15.13;8.20;;;16.50;99.90;;;;;;5111143;27;21101;-71
2022/10/21 10:40:01;;;;;;;10.63;9.03;;;16.60;99.90;;;;;;5134557;27;20474;-72
2022/10/21 10:42:33;;;;;;;9.80;7.47;;;16.60;99.90;;;;;;5135503;27;20423;-77
2022/10/21 10:45:11;;;;;;;10.77;7.97;;;16.70;99.90;;;;;;5132456;27;20431;-71
2022/10/21 10:47:45;;;;;;;9.43;7.20;;;16.70;99.90;;;;;;5132806;27;20439;-71
2022/10/21 10:50:39;;;;;;;15.33;8.50;;;16.80;99.90;;;;;;5108929;27;20581;-76
2022/10/21 10:53:26;;;;;;;11.63;7.80;;;16.80;99.90;;;;;;5124425;27;20431;-73
2022/10/21 10:56:02;;;;;;;10.00;7.23;;;16.90;99.90;;;;;;5125945;27;20585;-72
2022/10/21 10:58:31;;;;;;;8.70;6.83;;;16.80;99.90;;;;;;5124959;27;20455;-75
2022/10/21 11:01:00;;;;;;;9.70;7.63;;;16.80;99.90;;;;;;5094321;27;20534;-76
2022/10/21 11:03:33;;;;;;;10.70;7.77;;;16.80;99.90;;;;;;5099807;27;20933;-71
2022/10/21 11:06:12;;;;;;;10.83;7.33;;;16.80;99.90;;;;;;5099834;27;20458;-75
2022/10/21 11:08:44;;;;;;;8.70;6.30;;;16.70;99.90;;;;;;5122139;27;20429;-75
2022/10/21 11:11:43;;;;;;;9.30;6.50;;;16.70;99.90;;;;;;5097271;27;20436;-75
2022/10/21 11:14:14;;;;;;;11.03;7.57;;;16.70;99.90;;;;;;5127158;27;20431;-75
2022/10/21 11:16:54;;;;;;;8.30;7.40;;;16.60;99.90;;;;;;5109560;27;20419;-71
2022/10/21 11:19:44;;;;;;;8.27;6.00;;;16.70;99.90;;;;;;5125130;27;20458;-71
2022/10/21 11:22:19;;;;;;;7.50;6.37;;;16.70;99.90;;;;;;5127167;27;20438;-70
2022/10/21 11:24:54;;;;;;;8.07;6.30;;;16.70;99.90;;;;;;5124926;27;20799;-71
2022/10/21 11:27:52;;;;;;;11.37;6.63;;;16.80;99.90;;;;;;5106340;27;20454;-75
2022/10/21 11:30:29;;;;;;;9.83;7.07;;;16.80;99.90;;;;;;5121614;27;20523;-75
2022/10/21 11:33:13;;;;;;;7.60;6.80;;;16.90;99.90;;;;;;5122515;27;20416;-75
2022/10/21 11:36:02;;;;;;;9.30;5.93;;;16.90;99.90;;;;;;5105813;28;20511;-76
2022/10/21 11:38:31;;;;;;;11.03;5.70;;;16.90;99.90;;;;;;5110438;27;20462;-71
2022/10/21 11:41:22;;;;;;;6.07;5.47;;;16.90;99.90;;;;;;5104997;27;20596;-75
2022/10/21 11:44:04;;;;;;;7.03;6.17;;;16.90;99.90;;;;;;5119975;27;21122;-76
2022/10/21 11:47:12;;;;;;;10.37;6.97;;;16.90;99.90;;;;;;5122079;27;20518;-71
2022/10/21 11:49:54;;;;;;;9.80;5.87;;;16.90;99.90;;;;;;5025626;28;20470;-71
2022/10/21 11:52:40;;;;;;;8.33;5.23;;;17.00;99.90;;;;;;5115457;27;20437;-70
2022/10/21 11:55:34;;;;;;;6.80;5.43;;;17.00;99.90;;;;;;5099844;28;20454;-71
2022/10/21 11:58:20;;;;;;;7.43;5.03;;;17.10;99.90;;;;;;5119667;27;20448;-76
2022/10/21 12:01:05;;;;;;;7.37;5.57;;;17.10;99.90;;;;;;5099962;27;20489;-75
2022/10/21 12:03:54;;;;;;;7.60;4.73;;;17.20;99.90;;;;;;5116799;27;20439;-75
2022/10/21 12:06:40;;;;;;;6.80;5.13;;;17.40;99.90;;;;;;5105140;27;20490;-70
2022/10/21 12:09:25;;;;;;;7.60;4.90;;;17.50;99.90;;;;;;5124821;27;20478;-70
2022/10/21 12:12:00;;;;;;;8.10;5.33;;;17.60;99.50;;;;;;5131838;27;20424;-74
2022/10/21 12:14:33;;;;;;;8.30;5.37;;;17.60;99.10;;;;;;5125678;27;20437;-70
2022/10/21 12:17:04;;;;;;;5.30;4.80;;;17.70;99.00;;;;;;5105336;28;20440;-70
2022/10/21 12:19:30;;;;;;;7.00;5.27;;;17.60;98.40;;;;;;5106749;28;20871;-74
2022/10/21 12:21:56;;;;;;;9.17;4.90;;;17.70;98.60;;;;;;5121839;27;20428;-75
2022/10/21 12:24:40;;;;;;;5.17;4.67;;;17.60;98.50;;;;;;5102248;28;20568;-70
2022/10/21 12:27:21;;;;;;;6.23;5.00;;;17.60;98.90;;;;;;5120629;28;20421;-70
2022/10/21 12:30:18;;;;;;;6.33;5.00;;;17.60;98.50;;;;;;5119035;28;20436;-70
2022/10/21 12:32:47;;;;;;;9.47;5.43;;;17.60;98.30;;;;;;5104568;28;20427;-71
2022/10/21 12:35:19;;;;;;;9.80;6.37;;;17.60;98.40;;;;;;5104508;28;20425;-71
2022/10/21 12:37:51;;;;;;;8.37;5.53;;;17.70;98.50;;;;;;5123343;27;20425;-70
2022/10/21 12:40:36;;;;;;;6.80;5.87;;;17.70;98.60;;;;;;5125640;27;20563;-75
2022/10/21 12:43:16;;;;;;;12.67;6.40;;;17.60;98.90;;;;;;5130532;27;20436;-75
2022/10/21 12:45:42;;;;;;;7.00;5.63;;;17.70;98.30;;;;;;5128731;27;21039;-70
2022/10/21 12:48:31;;;;;;;8.17;5.60;;;17.70;98.10;;;;;;5129459;27;20523;-70
2022/10/21 12:51:00;;;;;;;7.20;5.57;;;17.80;98.30;;;;;;5109775;27;20512;-75
2022/10/21 12:53:34;;;;;;;6.90;5.90;;;17.80;98.30;;;;;;5130209;27;20921;-70
2022/10/21 12:56:01;;;;;;;5.90;5.40;;;17.80;98.30;;;;;;5113381;27;20523;-70
2022/10/21 12:58:40;;;;;;;7.80;5.93;;;17.90;98.20;;;;;;5134587;27;21044;-70